Terminal Aerodrome Forecast
Issued by NWS

Home | Current Version | Previous Version | Text Only | Print | Product List | Glossary On
Versions: 1 2 3 4 5 6 7 8 9 10 11 12 13 14 15 16 17
000
FTUS43 KJKL 020543
TAFSME
TAF
KSME 020543Z 0206/0306 VRB03KT P6SM FEW040
     FM021700 24005KT 5SM RA BR VCTS OVC040CB
     FM022100 27006KT 5SM RA BR OVC025
     FM022300 29006KT P6SM VCSH OVC022=

USA.gov is the U.S. government's official web portal to all federal, state and local government web resources and services.